Nearby METAR Reports

 

EDNY - Friedrichshafen, Germany
Distance from station: O 31km
aktuell: 01.03.2015 07:20
sehr leichter Niederschlag, geschlossene Wolkendecke
sehr leichter Niederschlag, geschlossene Wolkendecke
 Wind von varies
Wind: varies 4 km/h
Temperatur: 1°C
Taupunkt: -1°C
Luftfeuchte: 87%
Luftdruck: 1013 hPa
Zusammenfassung: sehr leichter Niederschlag
Clouds: geschlossene Wolkendecke
Visibility: 7 km
Cloud details: teilweise bewölkt 945 m
geschlossene Wolkendecke 1067 m
2015/03/01 06:20 EDNY 010620Z VRB02KT 7000 -RA SCT031 OVC035 01/M01 Q1013 RMK ATIS B
LSZR - Rheineck/Altenrh, Switzerland
Distance from station: SO 42km
aktuell: 01.03.2015 07:20
Light snow, Showers, stark bewölkt
Light snow, Showers, stark bewölkt
 Wind von varies
Wind: varies 4 km/h
Temperatur: 2°C
Taupunkt: 1°C
Luftfeuchte: 93%
Luftdruck: 1013 hPa
Zusammenfassung: Light snow, Showers
Clouds: stark bewölkt
Visibility: 8 km
Cloud details: teilweise bewölkt 1524 m
stark bewölkt 3353 m
2015/03/01 06:20 LSZR 010620Z AUTO VRB02KT 8000 -SHSN SCT050 BKN110 02/01 Q1013
LSZH - Zurich-Kloten (a, Switzerland
Distance from station: WSW 49km
aktuell: 01.03.2015 07:20
Rain snow, stark bewölkt
Rain snow, stark bewölkt
 Wind von SSO
Wind: SSO 15 km/h
Temperatur: 1°C
gefühlte Temperatur: -3°C
Taupunkt: 0°C
Luftfeuchte: 93%
Luftdruck: 1013 hPa
Zusammenfassung: Rain Snow
Clouds: stark bewölkt
Visibility: 5 km
Cloud details: Few Clouds 305 m
stark bewölkt 549 m
2015/03/01 06:20 LSZH 010620Z 15008KT 5000 RASN FEW010 BKN018 01/00 Q1013 TEMPO 4000 BKN014
 
EDTD - Donaueschingen, Germany
Distance from station: NW 53km
aktuell: 30.04.2014 18:20
NOT Current
sehr leichter Niederschlag, geschlossene Wolkendecke
sehr leichter Niederschlag, geschlossene Wolkendecke
 Wind von SSW
Wind: SSW 9 km/h
Temperatur: 10°C
gefühlte Temperatur: 9°C
Taupunkt: 10°C
Luftfeuchte: 100%
Luftdruck: 1011 hPa
Zusammenfassung: sehr leichter Niederschlag
Clouds: geschlossene Wolkendecke
Visibility: 9 km
Cloud details: stark bewölkt 213 m
geschlossene Wolkendecke 335 m
2014/04/30 16:20 EDTD 301620Z 20005KT 9000 -RA BKN007 OVC011 10/10 Q1011 LAST ?
ETGZ - Messstetten, Germany
Distance from station: N 54km
aktuell: 30.09.2013 14:20
NOT Current
geschlossene Wolkendecke
geschlossene Wolkendecke
 Wind von varies
Wind: varies 4 km/h
Temperatur: 8°C
Taupunkt: 7°C
Luftfeuchte: 93%
Luftdruck: 1007 hPa
Clouds: geschlossene Wolkendecke
Visibility: 10 km
Cloud details: geschlossene Wolkendecke 213 m
2013/09/30 12:20 ETGZ 301220Z VRB02KT 9999 OVC007 08/07 Q1007 GRN
LOIH - Hohenems-Dornbir, Austria
Distance from station: SO 57km
aktuell: 28.02.2015 14:00
NOT Current
stark bewölkt
stark bewölkt
 Wind von calm
Wind: Windstill
Temperatur: 6°C
Taupunkt: 3°C
Luftfeuchte: 81%
Luftdruck: 1019 hPa
Clouds: stark bewölkt
Cloud details: Few Clouds 457 m
stark bewölkt 914 m
2015/02/28 13:00 LOIH 281300Z 00000KT 15KM FEW015SC BKN030SC 06/03 Q1019 RMK BKN
 
ETHL - Laupheim (ger-Ar, Germany
Distance from station: NO 84km
aktuell: 01.03.2015 07:20
Light snow, Drizzle, Mist, geschlossene Wolkendecke
Light snow, Drizzle, Mist, geschlossene Wolkendecke
 Wind von SW
Wind: SW 20 km/h
Temperatur: 1°C
gefühlte Temperatur: -4°C
Taupunkt: 0°C
Luftfeuchte: 93%
Luftdruck: 1011 hPa
Zusammenfassung: Light snow, Drizzle, Mist
Clouds: geschlossene Wolkendecke
Visibility: 4 km
Cloud details: Few Clouds 213 m
stark bewölkt 396 m
geschlossene Wolkendecke 1067 m
2015/03/01 06:20 ETHL 010620Z 23011KT 4000 -SNDZ BR FEW007 BKN013 OVC035 01/M00 Q1011 GRN
EDJA - Memmingen Allgau, Germany
Distance from station: ONO 90km
aktuell: 01.03.2015 07:20
Mist, stark bewölkt
Mist, stark bewölkt
 Wind von SW
Wind: SW 30 km/h
Temperatur: 0°C
gefühlte Temperatur: -6°C
Taupunkt: 0°C
Luftfeuchte: 100%
Luftdruck: 1011 hPa
Zusammenfassung: Mist
Clouds: stark bewölkt
Visibility: 5 km
Cloud details: Few Clouds 305 m
stark bewölkt 1006 m
2015/03/01 06:20 EDJA 010620Z 23016KT 5000 BR FEW010 BKN033 00/M00 Q1011
LSME - Emmen, Switzerland
Distance from station: SW 90km
aktuell: 01.03.2015 06:50
sehr leichter Niederschlag, Showers, Schnee, geschlossene Wolkendecke
sehr leichter Niederschlag, Showers, Schnee, geschlossene Wolkendecke
 Wind von varies
Wind: varies 4 km/h
Temperatur: 1°C
Taupunkt: -1°C
Luftfeuchte: 87%
Luftdruck: 1014 hPa
Zusammenfassung: sehr leichter Niederschlag, Showers, Schnee
Clouds: geschlossene Wolkendecke
Visibility: 16 miles
Cloud details: Few Clouds 671 m
stark bewölkt 1036 m
geschlossene Wolkendecke 1219 m
2015/03/01 05:50 LSME 010550Z AUTO VRB02KT 9999NDV -SHRASN FEW022 BKN034 OVC040 01/M01 Q1014 RMK WHT
 
LSZC - Buochs, Switzerland
Distance from station: SSW 98km
aktuell: 01.03.2015 07:20
Light snow, stark bewölkt
Light snow, stark bewölkt
 Wind von varies
Wind: varies 2 km/h
Temperatur: 1°C
Taupunkt: -1°C
Luftfeuchte: 87%
Luftdruck: 1014 hPa
Zusammenfassung: Light Snow
Clouds: stark bewölkt
Visibility: 10 km
Cloud details: Few Clouds 610 m
stark bewölkt 884 m
2015/03/01 06:20 LSZC 010620Z AUTO VRB01KT 9999 -SN FEW020 BKN029 01/M01 Q1014